sensor_id;sensor_type;location;lat;lon;timestamp;P1;durP1;ratioP1;P2;durP2;ratioP2
79638;SDS011;69114;49.108;8.280;2023-04-25T00:00:28;4.95;;;3.55;;
79638;SDS011;69114;49.108;8.280;2023-04-25T00:02:53;4.43;;;3.42;;
79638;SDS011;69114;49.108;8.280;2023-04-25T00:05:21;4.28;;;3.25;;
79638;SDS011;69114;49.108;8.280;2023-04-25T00:07:48;5.22;;;3.50;;
79638;SDS011;69114;49.108;8.280;2023-04-25T00:10:13;4.88;;;3.40;;
79638;SDS011;69114;49.108;8.280;2023-04-25T00:12:39;5.28;;;3.53;;
79638;SDS011;69114;49.108;8.280;2023-04-25T00:15:05;6.18;;;4.10;;
79638;SDS011;69114;49.108;8.280;2023-04-25T00:17:31;5.03;;;3.28;;
79638;SDS011;69114;49.108;8.280;2023-04-25T00:19:56;6.03;;;3.53;;
79638;SDS011;69114;49.108;8.280;2023-04-25T00:22:23;4.85;;;3.70;;
79638;SDS011;69114;49.108;8.280;2023-04-25T00:24:48;5.22;;;3.65;;
79638;SDS011;69114;49.108;8.280;2023-04-25T00:27:14;5.05;;;4.10;;
79638;SDS011;69114;49.108;8.280;2023-04-25T00:29:40;4.47;;;3.42;;
79638;SDS011;69114;49.108;8.280;2023-04-25T00:32:05;7.07;;;3.97;;
79638;SDS011;69114;49.108;8.280;2023-04-25T00:34:30;6.20;;;3.90;;
79638;SDS011;69114;49.108;8.280;2023-04-25T00:36:56;7.32;;;4.15;;
79638;SDS011;69114;49.108;8.280;2023-04-25T00:39:22;5.95;;;3.95;;
79638;SDS011;69114;49.108;8.280;2023-04-25T00:41:47;5.18;;;4.00;;
79638;SDS011;69114;49.108;8.280;2023-04-25T00:44:13;5.50;;;3.83;;
79638;SDS011;69114;49.108;8.280;2023-04-25T00:46:41;4.65;;;3.65;;
79638;SDS011;69114;49.108;8.280;2023-04-25T00:49:07;7.25;;;3.90;;
79638;SDS011;69114;49.108;8.280;2023-04-25T00:51:33;7.35;;;4.32;;
79638;SDS011;69114;49.108;8.280;2023-04-25T00:53:59;5.38;;;3.72;;
79638;SDS011;69114;49.108;8.280;2023-04-25T00:56:25;5.25;;;3.97;;
79638;SDS011;69114;49.108;8.280;2023-04-25T00:58:51;4.70;;;3.50;;
79638;SDS011;69114;49.108;8.280;2023-04-25T01:01:19;6.10;;;4.22;;
79638;SDS011;69114;49.108;8.280;2023-04-25T01:03:45;7.32;;;4.03;;
79638;SDS011;69114;49.108;8.280;2023-04-25T01:06:11;6.40;;;4.18;;
79638;SDS011;69114;49.108;8.280;2023-04-25T01:08:38;5.95;;;4.10;;
79638;SDS011;69114;49.108;8.280;2023-04-25T01:11:04;6.90;;;4.45;;
79638;SDS011;69114;49.108;8.280;2023-04-25T01:13:30;6.57;;;4.90;;
79638;SDS011;69114;49.108;8.280;2023-04-25T01:15:57;6.35;;;3.92;;
79638;SDS011;69114;49.108;8.280;2023-04-25T01:18:23;7.38;;;4.30;;
79638;SDS011;69114;49.108;8.280;2023-04-25T01:20:50;6.07;;;4.25;;
79638;SDS011;69114;49.108;8.280;2023-04-25T01:23:16;5.07;;;4.05;;
79638;SDS011;69114;49.108;8.280;2023-04-25T01:25:43;5.82;;;4.05;;
79638;SDS011;69114;49.108;8.280;2023-04-25T01:28:08;5.43;;;3.85;;
79638;SDS011;69114;49.108;8.280;2023-04-25T01:30:33;5.85;;;3.88;;
79638;SDS011;69114;49.108;8.280;2023-04-25T01:32:59;6.40;;;4.10;;
79638;SDS011;69114;49.108;8.280;2023-04-25T01:35:25;5.72;;;3.75;;
79638;SDS011;69114;49.108;8.280;2023-04-25T01:37:51;6.70;;;4.40;;
79638;SDS011;69114;49.108;8.280;2023-04-25T01:40:16;6.25;;;4.22;;
79638;SDS011;69114;49.108;8.280;2023-04-25T01:42:43;4.88;;;3.60;;
79638;SDS011;69114;49.108;8.280;2023-04-25T01:45:10;6.30;;;4.03;;
79638;SDS011;69114;49.108;8.280;2023-04-25T01:47:37;5.90;;;4.10;;
79638;SDS011;69114;49.108;8.280;2023-04-25T01:50:04;5.88;;;4.00;;
79638;SDS011;69114;49.108;8.280;2023-04-25T01:52:31;5.85;;;3.92;;
79638;SDS011;69114;49.108;8.280;2023-04-25T01:54:57;6.63;;;3.70;;
79638;SDS011;69114;49.108;8.280;2023-04-25T01:57:24;6.40;;;3.80;;
79638;SDS011;69114;49.108;8.280;2023-04-25T01:59:49;5.28;;;4.05;;
79638;SDS011;69114;49.108;8.280;2023-04-25T02:02:16;6.03;;;4.22;;
79638;SDS011;69114;49.108;8.280;2023-04-25T02:04:41;6.70;;;4.32;;
79638;SDS011;69114;49.108;8.280;2023-04-25T02:07:06;7.73;;;4.90;;
79638;SDS011;69114;49.108;8.280;2023-04-25T02:09:32;6.50;;;4.50;;
79638;SDS011;69114;49.108;8.280;2023-04-25T02:11:57;6.03;;;4.20;;
79638;SDS011;69114;49.108;8.280;2023-04-25T02:14:23;6.30;;;4.18;;
79638;SDS011;69114;49.108;8.280;2023-04-25T02:16:48;8.02;;;5.45;;
79638;SDS011;69114;49.108;8.280;2023-04-25T02:19:14;5.68;;;4.18;;
79638;SDS011;69114;49.108;8.280;2023-04-25T02:21:39;5.72;;;4.30;;
79638;SDS011;69114;49.108;8.280;2023-04-25T02:24:05;6.90;;;4.40;;
79638;SDS011;69114;49.108;8.280;2023-04-25T02:26:30;8.10;;;5.07;;
79638;SDS011;69114;49.108;8.280;2023-04-25T02:28:56;7.37;;;5.30;;
79638;SDS011;69114;49.108;8.280;2023-04-25T02:31:22;7.93;;;5.40;;
79638;SDS011;69114;49.108;8.280;2023-04-25T02:33:47;10.05;;;5.35;;
79638;SDS011;69114;49.108;8.280;2023-04-25T02:36:13;6.75;;;4.90;;
79638;SDS011;69114;49.108;8.280;2023-04-25T02:38:38;6.87;;;4.60;;
79638;SDS011;69114;49.108;8.280;2023-04-25T02:41:04;8.30;;;5.00;;
79638;SDS011;69114;49.108;8.280;2023-04-25T02:43:29;9.82;;;5.68;;
79638;SDS011;69114;49.108;8.280;2023-04-25T02:45:54;8.48;;;5.40;;
79638;SDS011;69114;49.108;8.280;2023-04-25T02:48:20;6.90;;;5.07;;
79638;SDS011;69114;49.108;8.280;2023-04-25T02:50:45;9.38;;;5.03;;
79638;SDS011;69114;49.108;8.280;2023-04-25T02:53:11;7.40;;;5.20;;
79638;SDS011;69114;49.108;8.280;2023-04-25T02:55:36;8.15;;;4.70;;
79638;SDS011;69114;49.108;8.280;2023-04-25T02:58:01;9.13;;;5.40;;
79638;SDS011;69114;49.108;8.280;2023-04-25T03:00:27;7.68;;;5.32;;
79638;SDS011;69114;49.108;8.280;2023-04-25T03:02:52;7.45;;;4.88;;
79638;SDS011;69114;49.108;8.280;2023-04-25T03:05:17;8.20;;;5.78;;
79638;SDS011;69114;49.108;8.280;2023-04-25T03:07:43;7.50;;;5.35;;
79638;SDS011;69114;49.108;8.280;2023-04-25T03:10:09;8.23;;;5.45;;
79638;SDS011;69114;49.108;8.280;2023-04-25T03:12:35;7.45;;;4.85;;
79638;SDS011;69114;49.108;8.280;2023-04-25T03:15:01;7.72;;;5.35;;
79638;SDS011;69114;49.108;8.280;2023-04-25T03:17:26;6.85;;;5.28;;
79638;SDS011;69114;49.108;8.280;2023-04-25T03:19:52;9.50;;;5.32;;
79638;SDS011;69114;49.108;8.280;2023-04-25T03:22:17;9.20;;;5.38;;
79638;SDS011;69114;49.108;8.280;2023-04-25T03:24:43;11.23;;;5.95;;
79638;SDS011;69114;49.108;8.280;2023-04-25T03:27:08;6.53;;;4.90;;
79638;SDS011;69114;49.108;8.280;2023-04-25T03:29:34;7.70;;;4.95;;
79638;SDS011;69114;49.108;8.280;2023-04-25T03:31:59;8.60;;;5.63;;
79638;SDS011;69114;49.108;8.280;2023-04-25T03:34:24;8.25;;;5.35;;
79638;SDS011;69114;49.108;8.280;2023-04-25T03:36:51;7.60;;;4.97;;
79638;SDS011;69114;49.108;8.280;2023-04-25T03:39:16;7.07;;;5.07;;
79638;SDS011;69114;49.108;8.280;2023-04-25T03:41:41;7.13;;;4.70;;
79638;SDS011;69114;49.108;8.280;2023-04-25T03:44:07;8.70;;;5.47;;
79638;SDS011;69114;49.108;8.280;2023-04-25T03:46:32;7.75;;;5.07;;
79638;SDS011;69114;49.108;8.280;2023-04-25T03:48:57;7.97;;;5.43;;
79638;SDS011;69114;49.108;8.280;2023-04-25T03:51:24;6.85;;;4.78;;
79638;SDS011;69114;49.108;8.280;2023-04-25T03:53:50;9.07;;;5.45;;
79638;SDS011;69114;49.108;8.280;2023-04-25T03:56:16;8.23;;;5.38;;
79638;SDS011;69114;49.108;8.280;2023-04-25T03:58:41;8.00;;;5.50;;
79638;SDS011;69114;49.108;8.280;2023-04-25T04:01:06;8.18;;;4.82;;
79638;SDS011;69114;49.108;8.280;2023-04-25T04:03:35;8.52;;;5.45;;
79638;SDS011;69114;49.108;8.280;2023-04-25T04:06:02;8.00;;;5.53;;
79638;SDS011;69114;49.108;8.280;2023-04-25T04:08:29;7.55;;;5.15;;
79638;SDS011;69114;49.108;8.280;2023-04-25T04:10:55;6.65;;;5.38;;
79638;SDS011;69114;49.108;8.280;2023-04-25T04:13:20;7.88;;;5.50;;
79638;SDS011;69114;49.108;8.280;2023-04-25T04:15:46;9.52;;;4.97;;
79638;SDS011;69114;49.108;8.280;2023-04-25T04:18:11;8.70;;;5.50;;
79638;SDS011;69114;49.108;8.280;2023-04-25T04:20:36;7.38;;;4.90;;
79638;SDS011;69114;49.108;8.280;2023-04-25T04:23:02;8.83;;;5.37;;
79638;SDS011;69114;49.108;8.280;2023-04-25T04:25:27;11.30;;;5.82;;
79638;SDS011;69114;49.108;8.280;2023-04-25T04:27:53;6.75;;;4.55;;
79638;SDS011;69114;49.108;8.280;2023-04-25T04:30:21;6.95;;;5.07;;
79638;SDS011;69114;49.108;8.280;2023-04-25T04:32:49;7.45;;;5.20;;
79638;SDS011;69114;49.108;8.280;2023-04-25T04:35:15;6.55;;;5.18;;
79638;SDS011;69114;49.108;8.280;2023-04-25T04:37:40;7.22;;;4.78;;
79638;SDS011;69114;49.108;8.280;2023-04-25T04:40:05;8.20;;;5.13;;
79638;SDS011;69114;49.108;8.280;2023-04-25T04:42:32;8.23;;;5.50;;
79638;SDS011;69114;49.108;8.280;2023-04-25T04:44:57;25.63;;;21.42;;
79638;SDS011;69114;49.108;8.280;2023-04-25T04:47:23;10.13;;;5.43;;
79638;SDS011;69114;49.108;8.280;2023-04-25T04:49:49;7.50;;;4.82;;
79638;SDS011;69114;49.108;8.280;2023-04-25T04:52:14;7.53;;;5.45;;
79638;SDS011;69114;49.108;8.280;2023-04-25T04:54:40;7.15;;;5.25;;
79638;SDS011;69114;49.108;8.280;2023-04-25T04:57:05;8.38;;;5.35;;
79638;SDS011;69114;49.108;8.280;2023-04-25T04:59:30;7.87;;;5.63;;
79638;SDS011;69114;49.108;8.280;2023-04-25T05:01:56;8.50;;;5.25;;
79638;SDS011;69114;49.108;8.280;2023-04-25T05:04:21;8.20;;;5.07;;
79638;SDS011;69114;49.108;8.280;2023-04-25T05:06:47;7.95;;;4.82;;
79638;SDS011;69114;49.108;8.280;2023-04-25T05:09:12;8.50;;;5.28;;
79638;SDS011;69114;49.108;8.280;2023-04-25T05:11:37;6.50;;;5.30;;
79638;SDS011;69114;49.108;8.280;2023-04-25T05:14:03;8.40;;;4.78;;
79638;SDS011;69114;49.108;8.280;2023-04-25T05:16:28;6.45;;;5.03;;
79638;SDS011;69114;49.108;8.280;2023-04-25T05:18:53;7.38;;;5.30;;
79638;SDS011;69114;49.108;8.280;2023-04-25T05:21:19;6.53;;;4.90;;
79638;SDS011;69114;49.108;8.280;2023-04-25T05:23:44;8.82;;;4.80;;
79638;SDS011;69114;49.108;8.280;2023-04-25T05:26:09;7.20;;;4.97;;
79638;SDS011;69114;49.108;8.280;2023-04-25T05:28:39;5.78;;;4.40;;
79638;SDS011;69114;49.108;8.280;2023-04-25T05:31:06;9.25;;;5.50;;
79638;SDS011;69114;49.108;8.280;2023-04-25T05:33:32;6.88;;;4.80;;
79638;SDS011;69114;49.108;8.280;2023-04-25T05:35:57;7.45;;;4.72;;
79638;SDS011;69114;49.108;8.280;2023-04-25T05:38:23;7.28;;;4.90;;
79638;SDS011;69114;49.108;8.280;2023-04-25T05:40:48;6.97;;;5.10;;
79638;SDS011;69114;49.108;8.280;2023-04-25T05:43:13;6.68;;;5.13;;
79638;SDS011;69114;49.108;8.280;2023-04-25T05:45:39;6.57;;;4.90;;
79638;SDS011;69114;49.108;8.280;2023-04-25T05:48:04;8.02;;;5.82;;
79638;SDS011;69114;49.108;8.280;2023-04-25T05:50:29;7.32;;;5.18;;
79638;SDS011;69114;49.108;8.280;2023-04-25T05:52:55;8.15;;;5.65;;
79638;SDS011;69114;49.108;8.280;2023-04-25T05:55:20;5.32;;;4.25;;
79638;SDS011;69114;49.108;8.280;2023-04-25T05:57:45;6.77;;;4.90;;
79638;SDS011;69114;49.108;8.280;2023-04-25T06:00:14;11.02;;;5.65;;
79638;SDS011;69114;49.108;8.280;2023-04-25T06:02:40;7.85;;;5.28;;
79638;SDS011;69114;49.108;8.280;2023-04-25T06:05:06;9.07;;;5.97;;
79638;SDS011;69114;49.108;8.280;2023-04-25T06:07:32;8.68;;;5.68;;
79638;SDS011;69114;49.108;8.280;2023-04-25T06:09:57;9.52;;;5.70;;
79638;SDS011;69114;49.108;8.280;2023-04-25T06:12:23;10.55;;;6.65;;
79638;SDS011;69114;49.108;8.280;2023-04-25T06:14:48;12.40;;;6.55;;
79638;SDS011;69114;49.108;8.280;2023-04-25T06:17:13;10.60;;;6.57;;
79638;SDS011;69114;49.108;8.280;2023-04-25T06:19:39;8.48;;;5.90;;
79638;SDS011;69114;49.108;8.280;2023-04-25T06:22:04;11.13;;;7.05;;
79638;SDS011;69114;49.108;8.280;2023-04-25T06:24:29;10.15;;;7.38;;
79638;SDS011;69114;49.108;8.280;2023-04-25T06:26:55;11.10;;;7.47;;
79638;SDS011;69114;49.108;8.280;2023-04-25T06:29:20;12.70;;;7.63;;
79638;SDS011;69114;49.108;8.280;2023-04-25T06:31:46;9.82;;;6.45;;
79638;SDS011;69114;49.108;8.280;2023-04-25T06:34:11;12.25;;;6.70;;
79638;SDS011;69114;49.108;8.280;2023-04-25T06:36:37;8.68;;;5.63;;
79638;SDS011;69114;49.108;8.280;2023-04-25T06:39:02;10.55;;;7.40;;
79638;SDS011;69114;49.108;8.280;2023-04-25T06:41:28;12.23;;;7.55;;
79638;SDS011;69114;49.108;8.280;2023-04-25T06:43:53;13.07;;;8.40;;
79638;SDS011;69114;49.108;8.280;2023-04-25T06:46:18;13.90;;;8.77;;
79638;SDS011;69114;49.108;8.280;2023-04-25T06:48:44;13.93;;;8.95;;
79638;SDS011;69114;49.108;8.280;2023-04-25T06:51:09;14.32;;;7.63;;
79638;SDS011;69114;49.108;8.280;2023-04-25T06:53:35;11.38;;;7.28;;
79638;SDS011;69114;49.108;8.280;2023-04-25T06:56:00;9.70;;;6.70;;
79638;SDS011;69114;49.108;8.280;2023-04-25T06:58:25;11.40;;;6.90;;
79638;SDS011;69114;49.108;8.280;2023-04-25T07:00:51;10.10;;;7.43;;
79638;SDS011;69114;49.108;8.280;2023-04-25T07:03:17;11.65;;;7.32;;
79638;SDS011;69114;49.108;8.280;2023-04-25T07:05:42;16.85;;;10.10;;
79638;SDS011;69114;49.108;8.280;2023-04-25T07:08:07;13.90;;;9.25;;
79638;SDS011;69114;49.108;8.280;2023-04-25T07:10:33;15.27;;;8.32;;
79638;SDS011;69114;49.108;8.280;2023-04-25T07:12:58;13.88;;;8.35;;
79638;SDS011;69114;49.108;8.280;2023-04-25T07:15:23;11.73;;;8.17;;
79638;SDS011;69114;49.108;8.280;2023-04-25T07:17:49;15.90;;;9.40;;
79638;SDS011;69114;49.108;8.280;2023-04-25T07:20:15;20.50;;;11.15;;
79638;SDS011;69114;49.108;8.280;2023-04-25T07:22:41;16.55;;;10.93;;
79638;SDS011;69114;49.108;8.280;2023-04-25T07:25:06;14.18;;;9.60;;
79638;SDS011;69114;49.108;8.280;2023-04-25T07:27:33;11.43;;;8.23;;
79638;SDS011;69114;49.108;8.280;2023-04-25T07:29:58;13.35;;;9.45;;
79638;SDS011;69114;49.108;8.280;2023-04-25T07:32:24;17.63;;;9.30;;
79638;SDS011;69114;49.108;8.280;2023-04-25T07:34:50;13.98;;;8.93;;
79638;SDS011;69114;49.108;8.280;2023-04-25T07:37:16;12.88;;;9.25;;
79638;SDS011;69114;49.108;8.280;2023-04-25T07:39:43;15.00;;;9.13;;
79638;SDS011;69114;49.108;8.280;2023-04-25T07:42:10;15.63;;;9.27;;
79638;SDS011;69114;49.108;8.280;2023-04-25T07:44:36;14.63;;;9.38;;
79638;SDS011;69114;49.108;8.280;2023-04-25T07:47:06;16.33;;;9.52;;
79638;SDS011;69114;49.108;8.280;2023-04-25T07:49:33;17.38;;;10.18;;
79638;SDS011;69114;49.108;8.280;2023-04-25T07:51:59;18.60;;;11.32;;
79638;SDS011;69114;49.108;8.280;2023-04-25T07:54:25;17.30;;;10.45;;
79638;SDS011;69114;49.108;8.280;2023-04-25T07:56:51;18.73;;;10.48;;
79638;SDS011;69114;49.108;8.280;2023-04-25T07:59:16;16.05;;;10.23;;
79638;SDS011;69114;49.108;8.280;2023-04-25T08:01:41;19.70;;;11.05;;
79638;SDS011;69114;49.108;8.280;2023-04-25T08:04:07;22.60;;;13.03;;
79638;SDS011;69114;49.108;8.280;2023-04-25T08:06:32;19.20;;;12.40;;
79638;SDS011;69114;49.108;8.280;2023-04-25T08:09:01;19.35;;;12.38;;
79638;SDS011;69114;49.108;8.280;2023-04-25T08:11:26;18.38;;;11.60;;
79638;SDS011;69114;49.108;8.280;2023-04-25T08:13:52;19.75;;;11.05;;
79638;SDS011;69114;49.108;8.280;2023-04-25T08:16:17;20.25;;;12.35;;
79638;SDS011;69114;49.108;8.280;2023-04-25T08:18:43;21.40;;;11.77;;
79638;SDS011;69114;49.108;8.280;2023-04-25T08:21:08;18.88;;;10.85;;
79638;SDS011;69114;49.108;8.280;2023-04-25T08:23:36;21.73;;;13.25;;
79638;SDS011;69114;49.108;8.280;2023-04-25T08:26:01;21.63;;;12.27;;
79638;SDS011;69114;49.108;8.280;2023-04-25T08:28:27;20.98;;;12.48;;
79638;SDS011;69114;49.108;8.280;2023-04-25T08:30:53;15.95;;;10.73;;
79638;SDS011;69114;49.108;8.280;2023-04-25T08:33:18;18.35;;;10.20;;
79638;SDS011;69114;49.108;8.280;2023-04-25T08:35:44;18.77;;;11.63;;
79638;SDS011;69114;49.108;8.280;2023-04-25T08:38:10;17.80;;;10.45;;
79638;SDS011;69114;49.108;8.280;2023-04-25T08:40:37;19.00;;;11.70;;
79638;SDS011;69114;49.108;8.280;2023-04-25T08:43:03;18.00;;;11.55;;
79638;SDS011;69114;49.108;8.280;2023-04-25T08:45:36;17.98;;;11.30;;
79638;SDS011;69114;49.108;8.280;2023-04-25T08:48:04;18.92;;;11.10;;
79638;SDS011;69114;49.108;8.280;2023-04-25T08:50:31;19.38;;;11.70;;
79638;SDS011;69114;49.108;8.280;2023-04-25T08:52:56;20.15;;;11.02;;
79638;SDS011;69114;49.108;8.280;2023-04-25T08:55:26;15.38;;;8.07;;
79638;SDS011;69114;49.108;8.280;2023-04-25T08:57:53;15.73;;;10.25;;
79638;SDS011;69114;49.108;8.280;2023-04-25T09:00:20;22.13;;;11.73;;
79638;SDS011;69114;49.108;8.280;2023-04-25T09:02:47;12.75;;;7.45;;
79638;SDS011;69114;49.108;8.280;2023-04-25T09:05:12;21.45;;;11.65;;
79638;SDS011;69114;49.108;8.280;2023-04-25T09:07:38;22.85;;;12.75;;
79638;SDS011;69114;49.108;8.280;2023-04-25T09:10:04;19.23;;;11.68;;
79638;SDS011;69114;49.108;8.280;2023-04-25T09:12:29;21.13;;;11.63;;
79638;SDS011;69114;49.108;8.280;2023-04-25T09:15:03;27.95;;;13.93;;
79638;SDS011;69114;49.108;8.280;2023-04-25T09:17:31;16.45;;;8.25;;
79638;SDS011;69114;49.108;8.280;2023-04-25T09:20:04;21.17;;;11.73;;
79638;SDS011;69114;49.108;8.280;2023-04-25T09:22:35;17.30;;;10.90;;
79638;SDS011;69114;49.108;8.280;2023-04-25T09:25:02;10.32;;;5.18;;
79638;SDS011;69114;49.108;8.280;2023-04-25T09:27:29;21.25;;;11.07;;
79638;SDS011;69114;49.108;8.280;2023-04-25T09:29:58;20.75;;;11.85;;
79638;SDS011;69114;49.108;8.280;2023-04-25T09:32:27;17.08;;;10.43;;
79638;SDS011;69114;49.108;8.280;2023-04-25T09:34:53;22.13;;;11.52;;
79638;SDS011;69114;49.108;8.280;2023-04-25T09:37:29;25.63;;;11.40;;
79638;SDS011;69114;49.108;8.280;2023-04-25T09:39:59;20.65;;;11.18;;
79638;SDS011;69114;49.108;8.280;2023-04-25T09:42:28;15.77;;;9.70;;
79638;SDS011;69114;49.108;8.280;2023-04-25T09:44:56;18.25;;;9.77;;
79638;SDS011;69114;49.108;8.280;2023-04-25T09:47:23;13.95;;;7.57;;
79638;SDS011;69114;49.108;8.280;2023-04-25T09:49:50;19.48;;;9.93;;
79638;SDS011;69114;49.108;8.280;2023-04-25T09:52:17;23.10;;;10.38;;
79638;SDS011;69114;49.108;8.280;2023-04-25T09:54:45;15.52;;;8.82;;
79638;SDS011;69114;49.108;8.280;2023-04-25T09:59:50;19.35;;;9.77;;
79638;SDS011;69114;49.108;8.280;2023-04-25T10:02:23;19.90;;;10.75;;
79638;SDS011;69114;49.108;8.280;2023-04-25T10:04:51;12.98;;;8.50;;
79638;SDS011;69114;49.108;8.280;2023-04-25T10:07:20;17.20;;;8.68;;
79638;SDS011;69114;49.108;8.280;2023-04-25T10:09:50;16.67;;;9.43;;
79638;SDS011;69114;49.108;8.280;2023-04-25T10:12:24;16.77;;;9.18;;
79638;SDS011;69114;49.108;8.280;2023-04-25T10:14:49;16.73;;;9.35;;
79638;SDS011;69114;49.108;8.280;2023-04-25T10:17:15;17.63;;;9.48;;
79638;SDS011;69114;49.108;8.280;2023-04-25T10:19:42;21.83;;;10.32;;
79638;SDS011;69114;49.108;8.280;2023-04-25T10:24:45;15.43;;;8.13;;
79638;SDS011;69114;49.108;8.280;2023-04-25T10:27:11;13.88;;;7.53;;
79638;SDS011;69114;49.108;8.280;2023-04-25T10:29:37;16.30;;;7.55;;
79638;SDS011;69114;49.108;8.280;2023-04-25T10:32:03;15.73;;;6.28;;
79638;SDS011;69114;49.108;8.280;2023-04-25T10:34:50;13.48;;;6.75;;
79638;SDS011;69114;49.108;8.280;2023-04-25T10:37:15;15.20;;;8.35;;
79638;SDS011;69114;49.108;8.280;2023-04-25T10:39:40;11.40;;;6.50;;
79638;SDS011;69114;49.108;8.280;2023-04-25T10:42:07;4.68;;;3.40;;
79638;SDS011;69114;49.108;8.280;2023-04-25T10:44:33;5.43;;;3.75;;
79638;SDS011;69114;49.108;8.280;2023-04-25T10:46:59;5.40;;;2.88;;
79638;SDS011;69114;49.108;8.280;2023-04-25T10:54:46;10.40;;;6.03;;
79638;SDS011;69114;49.108;8.280;2023-04-25T10:59:52;10.68;;;6.50;;
79638;SDS011;69114;49.108;8.280;2023-04-25T11:02:17;11.80;;;6.82;;
79638;SDS011;69114;49.108;8.280;2023-04-25T11:04:43;15.98;;;7.95;;
79638;SDS011;69114;49.108;8.280;2023-04-25T11:09:53;13.35;;;7.05;;
79638;SDS011;69114;49.108;8.280;2023-04-25T11:12:19;17.30;;;8.20;;
79638;SDS011;69114;49.108;8.280;2023-04-25T11:14:44;15.35;;;8.15;;
79638;SDS011;69114;49.108;8.280;2023-04-25T11:17:10;15.10;;;7.25;;
79638;SDS011;69114;49.108;8.280;2023-04-25T11:19:36;14.18;;;8.00;;
79638;SDS011;69114;49.108;8.280;2023-04-25T11:22:02;19.65;;;10.18;;
79638;SDS011;69114;49.108;8.280;2023-04-25T11:24:34;19.08;;;9.43;;
79638;SDS011;69114;49.108;8.280;2023-04-25T11:27:01;11.73;;;7.20;;
79638;SDS011;69114;49.108;8.280;2023-04-25T11:29:32;7.63;;;3.88;;
79638;SDS011;69114;49.108;8.280;2023-04-25T11:31:58;9.25;;;5.65;;
79638;SDS011;69114;49.108;8.280;2023-04-25T11:34:25;10.02;;;5.50;;
79638;SDS011;69114;49.108;8.280;2023-04-25T11:36:58;10.93;;;6.05;;
79638;SDS011;69114;49.108;8.280;2023-04-25T11:39:24;10.07;;;7.07;;
79638;SDS011;69114;49.108;8.280;2023-04-25T11:41:50;13.00;;;7.90;;
79638;SDS011;69114;49.108;8.280;2023-04-25T11:44:16;9.98;;;6.75;;
79638;SDS011;69114;49.108;8.280;2023-04-25T11:46:42;16.00;;;8.73;;
79638;SDS011;69114;49.108;8.280;2023-04-25T11:49:08;10.60;;;6.30;;
79638;SDS011;69114;49.108;8.280;2023-04-25T11:51:41;8.52;;;6.20;;
79638;SDS011;69114;49.108;8.280;2023-04-25T11:54:08;7.47;;;5.25;;
79638;SDS011;69114;49.108;8.280;2023-04-25T11:56:33;11.60;;;5.88;;
79638;SDS011;69114;49.108;8.280;2023-04-25T12:04:37;7.60;;;3.80;;
79638;SDS011;69114;49.108;8.280;2023-04-25T12:06:55;4.88;;;3.83;;
79638;SDS011;69114;49.108;8.280;2023-04-25T12:09:21;6.05;;;4.50;;
79638;SDS011;69114;49.108;8.280;2023-04-25T12:11:54;7.75;;;4.95;;
79638;SDS011;69114;49.108;8.280;2023-04-25T12:14:22;4.88;;;3.50;;
79638;SDS011;69114;49.108;8.280;2023-04-25T12:16:52;4.70;;;3.08;;
79638;SDS011;69114;49.108;8.280;2023-04-25T12:19:20;5.85;;;3.50;;
79638;SDS011;69114;49.108;8.280;2023-04-25T12:21:46;4.10;;;3.15;;
79638;SDS011;69114;49.108;8.280;2023-04-25T12:24:13;6.05;;;3.28;;
79638;SDS011;69114;49.108;8.280;2023-04-25T12:26:47;3.42;;;2.65;;
79638;SDS011;69114;49.108;8.280;2023-04-25T12:29:17;3.58;;;2.70;;
79638;SDS011;69114;49.108;8.280;2023-04-25T12:31:44;3.10;;;2.67;;
79638;SDS011;69114;49.108;8.280;2023-04-25T12:34:10;4.35;;;2.90;;
79638;SDS011;69114;49.108;8.280;2023-04-25T12:36:35;4.72;;;3.10;;
79638;SDS011;69114;49.108;8.280;2023-04-25T12:39:01;4.20;;;2.80;;
79638;SDS011;69114;49.108;8.280;2023-04-25T12:41:29;3.90;;;3.10;;
79638;SDS011;69114;49.108;8.280;2023-04-25T12:43:55;5.15;;;3.50;;
79638;SDS011;69114;49.108;8.280;2023-04-25T12:46:20;4.18;;;2.92;;
79638;SDS011;69114;49.108;8.280;2023-04-25T12:48:45;5.32;;;3.53;;
79638;SDS011;69114;49.108;8.280;2023-04-25T12:51:11;3.78;;;3.20;;
79638;SDS011;69114;49.108;8.280;2023-04-25T12:53:36;5.80;;;3.75;;
79638;SDS011;69114;49.108;8.280;2023-04-25T12:56:03;5.88;;;3.08;;
79638;SDS011;69114;49.108;8.280;2023-04-25T12:58:29;5.90;;;3.78;;
79638;SDS011;69114;49.108;8.280;2023-04-25T13:00:55;3.90;;;3.08;;
79638;SDS011;69114;49.108;8.280;2023-04-25T13:03:20;4.17;;;3.43;;
79638;SDS011;69114;49.108;8.280;2023-04-25T13:05:46;4.60;;;3.47;;
79638;SDS011;69114;49.108;8.280;2023-04-25T13:08:11;5.32;;;4.10;;
79638;SDS011;69114;49.108;8.280;2023-04-25T13:10:37;5.25;;;3.72;;
79638;SDS011;69114;49.108;8.280;2023-04-25T13:13:04;6.38;;;4.05;;
79638;SDS011;69114;49.108;8.280;2023-04-25T13:15:29;5.50;;;3.67;;
79638;SDS011;69114;49.108;8.280;2023-04-25T13:17:55;7.60;;;4.00;;
79638;SDS011;69114;49.108;8.280;2023-04-25T13:20:20;6.13;;;4.30;;
79638;SDS011;69114;49.108;8.280;2023-04-25T13:22:47;7.95;;;4.13;;
79638;SDS011;69114;49.108;8.280;2023-04-25T13:25:12;7.22;;;4.13;;
79638;SDS011;69114;49.108;8.280;2023-04-25T13:27:38;5.63;;;3.72;;
79638;SDS011;69114;49.108;8.280;2023-04-25T13:30:05;5.30;;;4.20;;
79638;SDS011;69114;49.108;8.280;2023-04-25T13:32:36;6.10;;;4.45;;
79638;SDS011;69114;49.108;8.280;2023-04-25T13:35:06;8.40;;;5.20;;
79638;SDS011;69114;49.108;8.280;2023-04-25T13:37:33;8.07;;;5.00;;
79638;SDS011;69114;49.108;8.280;2023-04-25T13:40:02;8.25;;;5.05;;
79638;SDS011;69114;49.108;8.280;2023-04-25T13:42:30;7.80;;;5.40;;
79638;SDS011;69114;49.108;8.280;2023-04-25T13:44:56;9.38;;;5.22;;
79638;SDS011;69114;49.108;8.280;2023-04-25T13:47:21;7.97;;;5.47;;
79638;SDS011;69114;49.108;8.280;2023-04-25T13:49:48;6.80;;;4.80;;
79638;SDS011;69114;49.108;8.280;2023-04-25T13:52:13;7.43;;;4.90;;
79638;SDS011;69114;49.108;8.280;2023-04-25T13:54:39;7.38;;;4.72;;
79638;SDS011;69114;49.108;8.280;2023-04-25T13:57:04;6.95;;;4.95;;
79638;SDS011;69114;49.108;8.280;2023-04-25T13:59:30;5.80;;;4.68;;
79638;SDS011;69114;49.108;8.280;2023-04-25T14:01:56;6.47;;;4.72;;
79638;SDS011;69114;49.108;8.280;2023-04-25T14:04:21;7.25;;;5.07;;
79638;SDS011;69114;49.108;8.280;2023-04-25T14:06:46;9.43;;;5.35;;
79638;SDS011;69114;49.108;8.280;2023-04-25T14:09:12;6.28;;;4.82;;
79638;SDS011;69114;49.108;8.280;2023-04-25T14:11:38;8.30;;;5.80;;
79638;SDS011;69114;49.108;8.280;2023-04-25T14:14:04;10.80;;;5.75;;
79638;SDS011;69114;49.108;8.280;2023-04-25T14:16:30;8.70;;;6.22;;
79638;SDS011;69114;49.108;8.280;2023-04-25T14:18:57;11.68;;;5.68;;
79638;SDS011;69114;49.108;8.280;2023-04-25T14:21:23;10.90;;;5.85;;
79638;SDS011;69114;49.108;8.280;2023-04-25T14:23:48;7.43;;;5.18;;
79638;SDS011;69114;49.108;8.280;2023-04-25T14:26:13;10.18;;;5.63;;
79638;SDS011;69114;49.108;8.280;2023-04-25T14:28:39;7.90;;;5.65;;
79638;SDS011;69114;49.108;8.280;2023-04-25T14:31:04;6.68;;;5.07;;
79638;SDS011;69114;49.108;8.280;2023-04-25T14:33:30;10.75;;;5.78;;
79638;SDS011;69114;49.108;8.280;2023-04-25T14:35:55;8.90;;;5.97;;
79638;SDS011;69114;49.108;8.280;2023-04-25T14:38:21;9.13;;;5.63;;
79638;SDS011;69114;49.108;8.280;2023-04-25T14:40:48;8.48;;;5.13;;
79638;SDS011;69114;49.108;8.280;2023-04-25T14:43:14;9.10;;;5.10;;
79638;SDS011;69114;49.108;8.280;2023-04-25T14:45:39;8.40;;;5.63;;
79638;SDS011;69114;49.108;8.280;2023-04-25T14:48:05;8.38;;;5.22;;
79638;SDS011;69114;49.108;8.280;2023-04-25T14:50:31;8.48;;;5.68;;
79638;SDS011;69114;49.108;8.280;2023-04-25T14:52:57;11.73;;;6.07;;
79638;SDS011;69114;49.108;8.280;2023-04-25T14:55:25;10.15;;;6.10;;